Time;durP1;ratioP1;P1;durP2;ratioP2;P2;SDS_P1;SDS_P2;PMS_P1;PMS_P2;Temp;Humidity;BMP_temperature;BMP_pressure;BME280_temperature;BME280_humidity;BME280_pressure;Samples;Min_cycle;Max_cycle;Signal;HPM_P1;HPM_P2
2024/01/14 00:01:58;;;;;;;48.85;22.92;;;;;;;0.45;100.00;101545.34;4954266;29;20031;-87
2024/01/14 00:04:23;;;;;;;43.72;20.83;;;;;;;0.43;100.00;101550.41;4955013;29;20032;-86
2024/01/14 00:07:00;;;;;;;43.85;20.13;;;;;;;0.46;100.00;101555.63;4954465;29;20538;-86
2024/01/14 00:09:35;;;;;;;46.25;22.73;;;;;;;0.46;100.00;101555.63;4954198;29;20043;-86
2024/01/14 00:12:16;;;;;;;50.22;23.70;;;;;;;0.32;100.00;101528.72;4955106;29;20023;-87
2024/01/14 00:15:02;;;;;;;49.47;23.88;;;;;;;0.54;100.00;101560.16;4953622;29;20047;-86
2024/01/14 00:17:46;;;;;;;45.95;22.70;;;;;;;0.35;100.00;101533.91;4954390;29;20358;-86
2024/01/14 00:20:29;;;;;;;44.20;21.00;;;;;;;0.43;100.00;101540.19;4954392;29;20028;-86
2024/01/14 00:23:12;;;;;;;41.90;20.20;;;;;;;0.30;100.00;101518.41;4954007;28;20038;-87
2024/01/14 00:25:52;;;;;;;39.42;18.85;;;;;;;0.46;100.00;101547.09;4957907;29;20038;-86
2024/01/14 00:28:38;;;;;;;42.88;19.73;;;;;;;0.35;100.00;101525.41;4958388;29;20058;-86
2024/01/14 00:31:25;;;;;;;38.97;17.95;;;;;;;0.49;100.00;101534.47;4958164;29;20020;-86
2024/01/14 00:33:51;;;;;;;41.97;19.17;;;;;;;0.32;100.00;101503.19;4958125;29;20043;-86
2024/01/14 00:36:28;;;;;;;39.50;18.73;;;;;;;0.50;100.00;101525.09;4957870;29;20015;-86
2024/01/14 00:39:16;;;;;;;40.47;19.23;;;;;;;0.61;100.00;101534.91;4958058;29;20047;-87
2024/01/14 00:41:50;;;;;;;40.85;19.00;;;;;;;0.48;100.00;101493.50;4958046;29;20516;-86
2024/01/14 00:44:54;;;;;;;45.42;21.27;;;;;;;0.63;100.00;101526.41;4957560;29;20063;-86
2024/01/14 00:47:30;;;;;;;45.90;22.20;;;;;;;0.51;100.00;101506.41;4958694;29;20054;-86
2024/01/14 00:49:55;;;;;;;44.45;20.90;;;;;;;0.52;100.00;101514.13;4957322;28;20106;-87
2024/01/14 00:52:36;;;;;;;44.08;20.17;;;;;;;0.36;100.00;101482.03;4957616;29;20039;-86
2024/01/14 00:55:01;;;;;;;46.50;21.70;;;;;;;0.30;100.00;101482.69;4957500;29;20029;-86
2024/01/14 00:57:48;;;;;;;41.70;19.02;;;;;;;0.44;100.00;101495.09;4957413;29;20035;-86
2024/01/14 01:00:51;;;;;;;41.38;18.70;;;;;;;0.57;100.00;101521.94;4958016;29;20054;-86
2024/01/14 01:03:38;;;;;;;43.20;20.35;;;;;;;0.44;100.00;101489.97;4958046;29;20110;-87
2024/01/14 01:06:16;;;;;;;47.63;21.58;;;;;;;0.44;100.00;101488.31;4957035;29;20038;-86
2024/01/14 01:08:53;;;;;;;44.55;20.65;;;;;;;0.51;100.00;101491.94;4957131;29;20046;-87
2024/01/14 01:11:21;;;;;;;40.40;18.48;;;;;;;0.35;100.00;101459.00;4957980;29;20502;-87
2024/01/14 01:13:53;;;;;;;38.20;17.75;;;;;;;0.42;100.00;101472.06;4957293;29;20057;-86
2024/01/14 01:16:34;;;;;;;35.60;16.05;;;;;;;0.43;100.00;101468.69;4958120;29;20082;-87
2024/01/14 01:19:00;;;;;;;38.33;17.70;;;;;;;0.58;100.00;101487.91;4957154;29;20391;-87
2024/01/14 01:21:50;;;;;;;48.35;22.55;;;;;;;0.63;100.00;101514.53;4957843;29;20016;-87
2024/01/14 01:24:21;;;;;;;51.10;23.77;;;;;;;0.37;100.00;101465.91;4957153;29;20031;-86
2024/01/14 01:27:36;;;;;;;47.92;22.55;;;;;;;0.59;100.00;101500.78;4956514;29;20042;-87
2024/01/14 01:30:40;;;;;;;46.75;21.02;;;;;;;0.42;100.00;101476.28;4957741;29;20046;-87
2024/01/14 01:33:08;;;;;;;49.03;22.83;;;;;;;0.41;100.00;101477.97;4879615;29;20085;-87
2024/01/14 01:35:34;;;;;;;52.53;24.58;;;;;;;0.56;100.00;101504.91;4878591;29;20438;-87
2024/01/14 01:38:05;;;;;;;45.45;21.77;;;;;;;0.40;100.00;101460.91;4879288;29;20180;-87
2024/01/14 01:40:30;;;;;;;44.67;21.17;;;;;;;0.37;100.00;101450.59;4878798;29;20029;-87
2024/01/14 01:43:13;;;;;;;40.95;20.20;;;;;;;0.48;100.00;101470.53;4879179;29;20462;-87
2024/01/14 01:45:39;;;;;;;43.53;20.52;;;;;;;0.39;100.00;101454.06;4879173;29;20037;-86
2024/01/14 01:48:21;;;;;;;41.05;19.67;;;;;;;0.25;100.00;101432.25;4878862;29;20154;-87
2024/01/14 01:50:47;;;;;;;41.53;19.20;;;;;;;0.50;100.00;101472.34;4912990;29;20075;-87
2024/01/14 01:53:12;;;;;;;42.10;19.85;;;;;;;0.46;100.00;101457.72;4937917;29;20501;-87
2024/01/14 01:55:41;;;;;;;41.15;19.00;;;;;;;0.42;100.00;101453.28;4947822;29;20523;-88
2024/01/14 01:58:16;;;;;;;42.42;20.10;;;;;;;0.34;100.00;101439.38;4957002;29;20027;-87
2024/01/14 02:00:41;;;;;;;41.13;18.75;;;;;;;0.49;100.00;101472.28;4957395;23;20056;-87
2024/01/14 02:03:09;;;;;;;39.15;18.67;;;;;;;0.48;100.00;101473.06;4951938;29;20110;-87
2024/01/14 02:05:38;;;;;;;37.08;17.65;;;;;;;0.43;100.00;101461.03;4937476;29;20031;-86
2024/01/14 02:08:04;;;;;;;36.13;16.77;;;;;;;0.50;100.00;101469.78;4937327;29;20028;-87
2024/01/14 02:10:29;;;;;;;36.08;17.10;;;;;;;0.51;100.00;101468.09;4938149;29;20147;-88
2024/01/14 02:12:56;;;;;;;40.30;18.98;;;;;;;0.46;100.00;101453.47;4937589;29;20032;-87
2024/01/14 02:15:21;;;;;;;39.15;18.50;;;;;;;0.52;100.00;101459.63;4937485;29;20086;-87
2024/01/14 02:17:46;;;;;;;38.03;18.23;;;;;;;0.40;100.00;101435.38;4937556;29;20098;-87
2024/01/14 02:20:14;;;;;;;38.28;18.10;;;;;;;0.53;100.00;101463.91;4937540;29;20488;-88
2024/01/14 02:22:40;;;;;;;36.15;16.83;;;;;;;0.45;100.00;101451.72;4936730;29;20051;-87
2024/01/14 02:25:07;;;;;;;37.15;17.92;;;;;;;0.51;100.00;101455.31;4943717;29;20034;-87
2024/01/14 02:27:33;;;;;;;35.75;16.38;;;;;;;0.54;100.00;101463.09;4955933;29;20460;-87
2024/01/14 02:29:59;;;;;;;34.67;15.13;;;;;;;0.53;100.00;101458.81;4956061;29;20030;-87
2024/01/14 02:32:28;;;;;;;34.28;15.82;;;;;;;0.55;100.00;101458.03;4958978;23;20138;-87
2024/01/14 02:34:53;;;;;;;37.03;16.70;;;;;;;0.52;100.00;101454.50;4936323;29;20072;-86
2024/01/14 02:37:18;;;;;;;36.22;16.30;;;;;;;0.52;100.00;101441.75;4945147;29;20031;-87
2024/01/14 02:39:49;;;;;;;35.78;16.80;;;;;;;0.48;100.00;101432.22;4956056;29;20062;-87
2024/01/14 02:42:14;;;;;;;40.08;17.35;;;;;;;0.39;100.00;101415.75;4953290;29;20062;-87
2024/01/14 02:44:40;;;;;;;32.95;15.25;;;;;;;0.41;100.00;101408.13;4955304;29;20070;-87
2024/01/14 02:47:05;;;;;;;33.60;14.95;;;;;;;0.58;100.00;101432.63;4953502;23;20551;-87
2024/01/14 02:49:30;;;;;;;32.67;15.10;;;;;;;0.57;100.00;101417.22;4936863;29;20027;-87
2024/01/14 02:51:56;;;;;;;32.83;14.55;;;;;;;0.53;100.00;101403.47;4935505;29;20034;-86
2024/01/14 02:54:21;;;;;;;32.53;14.80;;;;;;;0.57;100.00;101405.31;4936919;29;20037;-86
2024/01/14 02:56:46;;;;;;;31.73;14.18;;;;;;;0.56;100.00;101402.72;4955700;29;20483;-86
2024/01/14 02:59:11;;;;;;;32.70;15.23;;;;;;;0.58;100.00;101413.84;4955265;29;20472;-86
2024/01/14 03:02:03;;;;;;;33.40;15.50;;;;;;;0.58;100.00;101411.28;4955330;29;20090;-86
2024/01/14 03:04:29;;;;;;;39.65;19.00;;;;;;;0.55;100.00;101401.84;4949561;29;20158;-86
2024/01/14 03:06:54;;;;;;;36.72;18.30;;;;;;;0.53;100.00;101398.34;4955364;29;20156;-86
2024/01/14 03:09:19;;;;;;;39.78;18.52;;;;;;;0.49;100.00;101385.44;4955634;29;20534;-86
2024/01/14 03:11:45;;;;;;;37.88;17.92;;;;;;;0.53;100.00;101387.28;4955058;29;20023;-86
2024/01/14 03:14:10;;;;;;;40.90;18.92;;;;;;;0.49;100.00;101381.22;4955433;29;20041;-86
2024/01/14 03:16:35;;;;;;;39.85;19.02;;;;;;;0.51;100.00;101386.34;4955122;29;20380;-87
2024/01/14 03:19:01;;;;;;;37.72;18.30;;;;;;;0.44;100.00;101377.63;4954571;29;20036;-86
2024/01/14 03:21:26;;;;;;;39.70;18.60;;;;;;;0.32;100.00;101369.53;4955410;29;20484;-87
2024/01/14 03:23:51;;;;;;;37.15;17.77;;;;;;;0.49;100.00;101388.88;4955040;29;20062;-86
2024/01/14 03:26:17;;;;;;;37.42;18.15;;;;;;;0.46;100.00;101375.97;4938618;29;20126;-86
2024/01/14 03:28:45;;;;;;;40.88;18.80;;;;;;;0.46;100.00;101375.97;4935876;29;20055;-87
2024/01/14 03:31:14;;;;;;;42.10;19.92;;;;;;;0.42;100.00;101369.91;4935926;29;20030;-86
2024/01/14 03:33:43;;;;;;;39.67;19.23;;;;;;;0.43;100.00;101374.19;4935066;29;20028;-86
2024/01/14 03:36:12;;;;;;;41.28;20.05;;;;;;;0.36;100.00;101362.00;4936036;29;20024;-86
2024/01/14 03:38:37;;;;;;;38.75;18.25;;;;;;;0.42;100.00;101374.13;4935833;29;20039;-86
2024/01/14 03:41:02;;;;;;;42.83;20.15;;;;;;;0.33;100.00;101361.03;4934986;29;20080;-86
2024/01/14 03:43:27;;;;;;;35.00;16.77;;;;;;;0.35;100.00;101360.28;4935739;29;20024;-86
2024/01/14 03:45:53;;;;;;;39.60;19.67;;;;;;;0.35;100.00;101361.97;4935326;29;20055;-84
2024/01/14 03:48:18;;;;;;;38.60;18.83;;;;;;;0.37;100.00;101365.47;4935132;29;20469;-86
2024/01/14 03:50:46;;;;;;;39.72;19.50;;;;;;;0.36;100.00;101363.72;4935314;29;20035;-86
2024/01/14 03:53:11;;;;;;;41.97;20.38;;;;;;;0.29;100.00;101352.41;4935183;29;20039;-86
2024/01/14 03:55:39;;;;;;;41.92;20.17;;;;;;;0.32;100.00;101360.19;4945629;29;20023;-87
2024/01/14 03:58:05;;;;;;;36.78;17.73;;;;;;;0.31;100.00;101358.44;4953830;29;20408;-86
2024/01/14 04:00:30;;;;;;;37.67;18.65;;;;;;;0.28;100.00;101343.88;4954187;29;20020;-86
2024/01/14 04:02:56;;;;;;;35.15;16.85;;;;;;;0.34;100.00;101344.91;4954583;29;20376;-86
2024/01/14 04:05:21;;;;;;;34.20;15.65;;;;;;;0.30;100.00;101349.06;4954845;29;20047;-87
2024/01/14 04:07:49;;;;;;;34.72;16.25;;;;;;;0.34;100.00;101350.88;4953930;29;20031;-86
2024/01/14 04:12:42;;;;;;;35.15;17.17;;;;;;;0.29;100.00;101348.16;4953346;29;20044;-86
2024/01/14 04:15:09;;;;;;;32.03;15.20;;;;;;;0.31;100.00;101340.56;4954154;29;20031;-87
2024/01/14 04:17:34;;;;;;;31.73;15.45;;;;;;;0.25;100.00;101328.47;4954476;29;20023;-86
2024/01/14 04:20:03;;;;;;;35.45;15.77;;;;;;;0.31;100.00;101338.03;4955042;29;20034;-86
2024/01/14 04:22:29;;;;;;;38.40;19.08;;;;;;;0.28;100.00;101328.56;4954181;29;20027;-86
2024/01/14 04:24:54;;;;;;;35.08;16.95;;;;;;;0.21;100.00;101326.59;4954378;28;20603;-86
2024/01/14 04:27:19;;;;;;;35.67;15.95;;;;;;;0.27;100.00;101331.06;4954624;29;20127;-86
2024/01/14 04:29:48;;;;;;;34.72;16.25;;;;;;;0.25;100.00;101340.34;4953850;29;20061;-86
2024/01/14 04:32:13;;;;;;;33.30;15.50;;;;;;;0.28;100.00;101337.91;4954492;29;20478;-86
2024/01/14 04:34:38;;;;;;;33.28;15.93;;;;;;;0.24;100.00;101334.38;4958127;28;20026;-87
2024/01/14 04:37:06;;;;;;;34.17;15.95;;;;;;;0.25;100.00;101325.03;4973152;28;20023;-86
2024/01/14 04:39:31;;;;;;;35.22;16.50;;;;;;;0.22;100.00;101330.06;4973729;28;20027;-86
2024/01/14 04:41:57;;;;;;;34.17;15.57;;;;;;;0.26;100.00;101331.88;5004852;23;20062;-86
2024/01/14 04:44:22;;;;;;;36.25;17.05;;;;;;;0.20;100.00;101312.09;4934539;29;20040;-86
2024/01/14 04:46:48;;;;;;;39.10;18.40;;;;;;;0.22;100.00;101312.19;4935141;29;20028;-86
2024/01/14 04:49:13;;;;;;;40.95;19.38;;;;;;;0.22;100.00;101312.19;4935443;29;20027;-87
2024/01/14 04:51:38;;;;;;;39.72;18.45;;;;;;;0.27;100.00;101324.28;4934499;29;20082;-87
2024/01/14 04:54:07;;;;;;;40.85;20.13;;;;;;;0.20;100.00;101314.66;4935462;29;20078;-86
2024/01/14 04:56:33;;;;;;;42.38;21.35;;;;;;;0.20;100.00;101311.25;4950864;29;20032;-85
2024/01/14 04:58:58;;;;;;;40.80;20.38;;;;;;;0.16;100.00;101315.38;4954304;29;20152;-85
2024/01/14 05:03:48;;;;;;;38.42;18.50;;;;;;;0.07;100.00;101295.50;4952735;23;20060;-86
2024/01/14 05:06:16;;;;;;;35.10;16.92;;;;;;;0.06;100.00;101288.66;4935395;29;20280;-86
2024/01/14 05:08:42;;;;;;;35.05;16.88;;;;;;;0.13;100.00;101300.81;4951774;23;20047;-86
2024/01/14 05:11:11;;;;;;;34.90;16.38;;;;;;;0.09;100.00;101299.00;4955344;28;20035;-86
2024/01/14 05:13:39;;;;;;;34.50;16.42;;;;;;;0.12;100.00;101293.13;4957427;29;20023;-85
2024/01/14 05:16:05;;;;;;;33.60;16.20;;;;;;;0.10;100.00;101287.97;4957938;29;20111;-86
2024/01/14 05:18:30;;;;;;;30.67;14.25;;;;;;;0.06;100.00;101288.66;4956958;29;20031;-86
2024/01/14 05:20:55;;;;;;;28.55;13.45;;;;;;;0.05;100.00;101278.41;4957661;29;20150;-86
2024/01/14 05:23:21;;;;;;;26.20;11.40;;;;;;;0.12;100.00;101293.13;4957565;29;20030;-86
2024/01/14 05:25:47;;;;;;;27.38;12.35;;;;;;;0.09;100.00;101278.56;4956845;29;20035;-86
2024/01/14 05:28:15;;;;;;;30.27;14.02;;;;;;;0.12;100.00;101290.56;4957254;29;20098;-86
2024/01/14 05:30:40;;;;;;;31.40;14.65;;;;;;;0.12;100.00;101282.91;4957488;29;20441;-86
2024/01/14 05:33:06;;;;;;;30.92;13.95;;;;;;;0.06;100.00;101269.91;4956814;29;20102;-85
2024/01/14 05:35:31;;;;;;;28.38;13.15;;;;;;;0.11;100.00;101281.16;4957005;29;20476;-86
2024/01/14 05:37:56;;;;;;;30.55;13.77;;;;;;;0.11;100.00;101276.06;4957240;29;20042;-86
2024/01/14 05:40:22;;;;;;;29.42;13.50;;;;;;;0.06;100.00;101263.13;4956673;29;20111;-86
2024/01/14 05:42:48;;;;;;;26.38;11.30;;;;;;;0.05;100.00;101258.84;4957058;29;20027;-86
2024/01/14 05:45:13;;;;;;;26.60;12.27;;;;;;;0.08;100.00;101268.28;4957229;29;20031;-85
2024/01/14 05:47:41;;;;;;;27.95;12.05;;;;;;;0.02;100.00;101251.06;4947509;23;20071;-86
2024/01/14 05:50:07;;;;;;;27.08;11.52;;;;;;;0.09;100.00;101259.81;4937570;29;20043;-86
2024/01/14 05:52:33;;;;;;;27.05;11.65;;;;;;;0.06;100.00;101260.59;4936833;29;20027;-86
2024/01/14 05:55:04;;;;;;;27.23;11.43;;;;;;;0.06;100.00;101252.94;4937092;29;20023;-86
2024/01/14 05:57:30;;;;;;;27.80;11.77;;;;;;;0.08;100.00;101258.06;4937923;29;20020;-87
2024/01/14 05:59:55;;;;;;;28.23;12.30;;;;;;;0.07;100.00;101253.78;4953524;29;20035;-85
2024/01/14 06:02:21;;;;;;;26.58;11.80;;;;;;;0.05;100.00;101245.22;4951757;23;20079;-86
2024/01/14 06:04:46;;;;;;;28.80;13.02;;;;;;;-0.02;100.00;101232.25;4937492;29;20106;-86
2024/01/14 06:07:11;;;;;;;30.33;12.90;;;;;;;0.04;100.00;101244.34;4936912;29;20048;-85
2024/01/14 06:09:55;;;;;;;31.55;14.13;;;;;;;-0.14;100.00;101213.97;4937179;29;20039;-86
2024/01/14 06:12:23;;;;;;;33.20;14.90;;;;;;;-0.07;100.00;101225.25;4937648;29;20038;-86
2024/01/14 06:14:50;;;;;;;33.28;15.18;;;;;;;-0.08;100.00;101220.97;4936631;29;20039;-86
2024/01/14 06:17:16;;;;;;;33.40;14.65;;;;;;;-0.20;100.00;101198.44;4937595;29;20028;-86
2024/01/14 06:19:50;;;;;;;30.25;13.63;;;;;;;-0.27;100.00;101192.28;4936985;29;20020;-86
2024/01/14 06:22:33;;;;;;;28.10;12.32;;;;;;;-0.23;100.00;101198.34;4935296;29;20032;-85
2024/01/14 06:24:59;;;;;;;30.95;13.70;;;;;;;-0.13;100.00;101202.09;4937541;29;20023;-86
2024/01/14 06:27:39;;;;;;;30.27;13.40;;;;;;;-0.16;100.00;101198.59;4937384;29;20027;-86
2024/01/14 06:30:23;;;;;;;32.10;14.38;;;;;;;-0.15;100.00;101191.81;4936586;29;20087;-86
2024/01/14 06:32:57;;;;;;;27.85;12.27;;;;;;;-0.04;100.00;101208.34;4936608;29;20066;-85
2024/01/14 06:35:26;;;;;;;29.83;13.32;;;;;;;-0.23;100.00;101170.28;4936114;29;20433;-85
2024/01/14 06:37:54;;;;;;;29.77;13.38;;;;;;;-0.08;100.00;101196.31;4936426;29;20489;-85
2024/01/14 06:40:19;;;;;;;27.63;12.48;;;;;;;-0.05;100.00;101201.50;4936439;29;20036;-86
2024/01/14 06:42:47;;;;;;;29.63;13.35;;;;;;;-0.04;100.00;101202.41;4936040;29;20028;-85
2024/01/14 06:45:13;;;;;;;30.38;13.13;;;;;;;0.00;100.00;101199.16;4936459;29;20039;-86
2024/01/14 06:47:41;;;;;;;28.88;12.80;;;;;;;-0.01;100.00;101207.63;4936752;29;20023;-86
2024/01/14 06:50:08;;;;;;;26.48;11.60;;;;;;;0.01;100.00;101197.44;4936205;29;20082;-85
2024/01/14 06:52:33;;;;;;;25.55;11.20;;;;;;;0.05;100.00;101201.84;4936501;29;20039;-85
2024/01/14 06:55:04;;;;;;;28.40;12.43;;;;;;;0.07;100.00;101201.06;4943201;29;20027;-86
2024/01/14 06:57:33;;;;;;;26.55;11.15;;;;;;;0.00;100.00;101181.28;4953768;29;20039;-86
2024/01/14 07:00:00;;;;;;;25.88;11.00;;;;;;;-0.03;100.00;101171.81;4936576;29;20042;-86
2024/01/14 07:02:26;;;;;;;28.08;12.32;;;;;;;0.06;100.00;101181.47;4935988;29;20496;-86
2024/01/14 07:04:51;;;;;;;30.27;13.63;;;;;;;0.03;100.00;101186.47;4935465;29;20078;-85
2024/01/14 07:07:19;;;;;;;27.75;12.15;;;;;;;0.02;100.00;101187.28;4936580;29;20023;-86
2024/01/14 07:09:45;;;;;;;29.58;13.68;;;;;;;-0.04;100.00;101171.78;4936197;29;20103;-85
2024/01/14 07:12:10;;;;;;;30.70;13.68;;;;;;;-0.05;100.00;101175.13;4935481;29;20110;-86
2024/01/14 07:14:35;;;;;;;29.92;12.77;;;;;;;-0.06;100.00;101168.28;4935895;29;20362;-85
2024/01/14 07:17:01;;;;;;;31.95;14.43;;;;;;;-0.03;100.00;101176.06;4943721;23;20098;-86
2024/01/14 07:19:26;;;;;;;28.90;13.27;;;;;;;-0.14;100.00;101156.97;4935773;29;20055;-86
2024/01/14 07:21:56;;;;;;;28.65;12.95;;;;;;;-0.02;100.00;101171.00;4935718;29;20465;-85
2024/01/14 07:24:21;;;;;;;31.02;12.85;;;;;;;-0.02;100.00;101183.75;4935417;29;20034;-86
2024/01/14 07:26:56;;;;;;;29.13;12.68;;;;;;;-0.05;100.00;101180.25;4996761;23;20043;-85
2024/01/14 07:29:24;;;;;;;33.08;14.48;;;;;;;-0.06;100.00;101176.84;4942607;29;20031;-85
2024/01/14 07:31:49;;;;;;;30.33;13.77;;;;;;;-0.04;100.00;101176.88;4954242;29;20491;-86
2024/01/14 07:36:50;;;;;;;36.35;16.20;;;;;;;-0.07;100.00;101172.53;5120273;23;20119;-84
2024/01/14 07:39:36;;;;;;;35.25;15.00;;;;;;;-0.25;100.00;101139.63;4934618;29;20044;-85
2024/01/14 07:42:13;;;;;;;30.27;13.18;;;;;;;-0.13;100.00;101163.81;4936940;29;20047;-85
2024/01/14 07:44:53;;;;;;;34.10;14.85;;;;;;;-0.11;100.00;101168.16;4935774;29;20035;-85
2024/01/14 07:47:18;;;;;;;35.85;15.52;;;;;;;-0.22;100.00;101157.56;4934993;29;20035;-85
2024/01/14 07:49:55;;;;;;;36.42;16.58;;;;;;;-0.22;100.00;101159.25;4935368;29;20038;-85
2024/01/14 07:53:01;;;;;;;36.90;16.17;;;;;;;-0.08;100.00;101192.88;4935206;29;20401;-84
2024/01/14 07:55:44;;;;;;;34.93;15.80;;;;;;;-0.09;100.00;101178.41;4935846;29;20055;-85
2024/01/14 07:58:17;;;;;;;36.85;16.30;;;;;;;-0.16;100.00;101159.47;4935960;29;20780;-85
2024/01/14 08:00:49;;;;;;;32.33;13.80;;;;;;;-0.32;100.00;101130.91;4935054;29;20063;-85
2024/01/14 08:03:15;;;;;;;31.60;13.70;;;;;;;-0.14;100.00;101162.94;4992906;23;20119;-85
2024/01/14 08:06:08;;;;;;;35.78;16.05;;;;;;;-0.23;100.00;101135.44;4935257;29;20020;-85
2024/01/14 08:08:48;;;;;;;35.35;15.40;;;;;;;-0.04;100.00;101176.88;4934658;29;20115;-85
2024/01/14 08:11:35;;;;;;;31.02;14.70;;;;;;;-0.04;100.00;101175.19;4935369;29;20036;-85
2024/01/14 08:14:15;;;;;;;30.45;13.75;;;;;;;-0.11;100.00;101154.53;5005664;23;20055;-85
2024/01/14 08:17:37;;;;;;;29.95;13.40;;;;;;;-0.03;100.00;101173.50;4953808;29;20031;-84
2024/01/14 08:20:17;;;;;;;33.13;15.18;;;;;;;-0.15;100.00;101145.88;4954719;29;20039;-85
2024/01/14 08:22:42;;;;;;;33.63;14.75;;;;;;;-0.25;100.00;101137.06;4953924;29;20030;-85
2024/01/14 08:25:30;;;;;;;31.00;14.27;;;;;;;-0.03;100.00;101168.41;4954571;29;20031;-84
2024/01/14 08:28:44;;;;;;;28.58;12.43;;;;;;;-0.02;100.00;101168.44;4953589;29;20027;-85
2024/01/14 08:31:15;;;;;;;27.65;11.75;;;;;;;0.00;100.00;101178.72;4954745;29;20399;-84
2024/01/14 08:34:18;;;;;;;27.98;12.20;;;;;;;-0.08;100.00;101168.25;4953154;29;20063;-85
2024/01/14 08:37:02;;;;;;;29.23;12.70;;;;;;;-0.07;100.00;101166.56;4953781;29;20085;-85
2024/01/14 08:40:21;;;;;;;31.42;13.65;;;;;;;-0.19;100.00;101137.25;4954269;29;20037;-85
2024/01/14 08:43:33;;;;;;;33.13;15.00;;;;;;;0.04;100.00;101172.03;4955530;28;20023;-85
2024/01/14 08:46:00;;;;;;;28.58;12.52;;;;;;;0.05;100.00;101172.06;5099688;23;20107;-84
2024/01/14 08:48:26;;;;;;;28.42;12.43;;;;;;;0.07;100.00;101160.25;4958322;29;20161;-84
2024/01/14 08:50:53;;;;;;;28.20;11.70;;;;;;;0.09;100.00;101150.94;4957577;29;20066;-85
2024/01/14 08:53:18;;;;;;;;;;;;;;;0.14;100.00;101151.94;4958516;29;20042;-87
2024/01/14 08:55:45;;;;;;;32.87;13.30;;;;;;;0.06;100.00;101142.31;4971683;23;19914;-87
2024/01/14 08:58:17;;;;;;;28.65;12.65;;;;;;;0.08;100.00;101145.78;4957940;29;20035;-85
2024/01/14 09:01:04;;;;;;;27.17;11.73;;;;;;;0.19;100.00;101162.31;4957214;29;20134;-85
2024/01/14 09:03:29;;;;;;;27.80;11.93;;;;;;;-0.01;100.00;101125.94;4963955;23;20051;-85
2024/01/14 09:05:54;;;;;;;27.20;11.68;;;;;;;0.00;100.00;101112.38;4956592;29;20431;-84
2024/01/14 09:08:22;;;;;;;28.33;12.82;;;;;;;0.21;100.00;101162.38;4964429;23;20515;-85
2024/01/14 09:10:48;;;;;;;31.00;14.18;;;;;;;0.22;100.00;101161.56;4956861;29;20125;-85
2024/01/14 09:13:19;;;;;;;31.45;14.30;;;;;;;0.20;100.00;101155.53;4957695;29;20035;-85
2024/01/14 09:15:47;;;;;;;31.58;13.68;;;;;;;0.18;100.00;101157.16;4957258;29;20070;-85
2024/01/14 09:18:18;;;;;;;29.40;13.50;;;;;;;0.14;100.00;101149.41;4957152;29;20023;-85
2024/01/14 09:20:43;;;;;;;30.75;12.55;;;;;;;0.24;100.00;101153.13;4957409;29;20035;-85
2024/01/14 09:23:29;;;;;;;28.80;12.77;;;;;;;0.00;100.00;101109.81;5013511;23;20559;-85
2024/01/14 09:26:01;;;;;;;27.75;12.13;;;;;;;0.13;100.00;101122.13;4956826;29;20105;-85
2024/01/14 09:28:35;;;;;;;26.20;10.98;;;;;;;0.01;100.00;101093.66;4957634;29;20027;-85
2024/01/14 09:31:21;;;;;;;28.58;11.98;;;;;;;0.18;100.00;101122.28;4956668;29;20019;-85
2024/01/14 09:33:49;;;;;;;30.00;12.80;;;;;;;0.27;100.00;101129.38;4957288;29;20031;-85
2024/01/14 09:36:36;;;;;;;29.23;13.02;;;;;;;0.09;100.00;101102.47;4957507;29;20518;-85
2024/01/14 09:39:16;;;;;;;29.52;12.82;;;;;;;0.17;100.00;101109.47;4956702;29;20106;-85
2024/01/14 09:42:23;;;;;;;32.05;13.82;;;;;;;0.28;100.00;101128.56;4957210;29;20019;-85
2024/01/14 09:45:15;;;;;;;30.10;12.85;;;;;;;0.08;100.00;101081.97;4956397;29;20023;-85
2024/01/14 09:48:02;;;;;;;31.90;14.57;;;;;;;0.30;100.00;101124.38;5099476;23;20109;-85
2024/01/14 09:50:43;;;;;;;32.17;14.20;;;;;;;0.11;100.00;101092.28;4956827;29;20039;-85
2024/01/14 09:53:11;;;;;;;30.23;13.10;;;;;;;0.29;100.00;101104.75;5128547;23;20417;-84
2024/01/14 09:55:39;;;;;;;30.20;13.95;;;;;;;0.36;100.00;101113.47;4956374;28;20035;-85
2024/01/14 09:58:06;;;;;;;31.38;14.15;;;;;;;0.36;100.00;101122.00;4956467;29;20110;-84
2024/01/14 10:00:32;;;;;;;32.47;14.45;;;;;;;0.36;100.00;101119.44;4955906;29;20030;-85
2024/01/14 10:02:59;;;;;;;32.05;14.20;;;;;;;0.33;100.00;101111.72;4956514;29;20031;-85
2024/01/14 10:05:24;;;;;;;33.20;15.07;;;;;;;0.38;100.00;101114.41;4956567;29;20041;-85
2024/01/14 10:07:49;;;;;;;35.50;16.42;;;;;;;0.41;100.00;101127.25;4955461;29;20031;-84
2024/01/14 10:10:32;;;;;;;32.50;14.10;;;;;;;0.46;100.00;101120.59;5010438;23;20400;-84
2024/01/14 10:12:58;;;;;;;36.15;16.50;;;;;;;0.35;100.00;101099.84;4955467;29;20031;-84
2024/01/14 10:15:38;;;;;;;34.40;16.07;;;;;;;0.28;100.00;101077.50;4950800;29;20039;-84
2024/01/14 10:18:22;;;;;;;32.58;15.20;;;;;;;0.42;100.00;101089.00;4956719;29;20174;-85
2024/01/14 10:20:50;;;;;;;33.20;15.13;;;;;;;0.43;100.00;101083.09;4955383;29;20039;-86
2024/01/14 10:23:23;;;;;;;32.90;15.05;;;;;;;0.52;100.00;101097.78;4956605;29;20031;-86
2024/01/14 10:25:48;;;;;;;35.25;15.98;;;;;;;0.50;100.00;101081.56;4954154;28;20034;-85
2024/01/14 10:28:15;;;;;;;37.65;16.73;;;;;;;0.55;100.00;101089.38;4959218;28;20384;-85
2024/01/14 10:30:40;;;;;;;36.75;17.48;;;;;;;0.55;100.00;101085.13;4960415;28;20031;-85
2024/01/14 10:33:06;;;;;;;36.97;17.17;;;;;;;0.55;100.00;101077.47;4963417;28;20031;-85
2024/01/14 10:35:32;;;;;;;35.80;15.63;;;;;;;0.59;100.00;101080.97;5010630;23;20051;-85
2024/01/14 10:37:57;;;;;;;32.15;14.48;;;;;;;0.60;100.00;101082.69;4947809;29;20024;-84
2024/01/14 10:40:26;;;;;;;33.25;15.35;;;;;;;0.57;100.00;101063.06;4953215;23;20501;-79
2024/01/14 10:43:34;;;;;;;33.45;15.52;;;;;;;0.60;100.00;101067.38;4943484;29;20031;-85
2024/01/14 10:46:06;;;;;;;31.70;14.40;;;;;;;0.42;100.00;101030.28;4903490;23;20062;-85
2024/01/14 10:52:39;;;;;;;28.40;12.57;;;;;;;0.31;100.00;101011.22;4956483;28;20043;-85
2024/01/14 10:58:44;;;;;;;32.88;14.68;;;;;;;0.52;100.00;101036.50;4968133;23;20483;-85
2024/01/14 11:01:13;;;;;;;29.48;13.38;;;;;;;0.45;100.00;101020.13;4962021;28;20015;-85
2024/01/14 11:03:46;;;;;;;33.42;14.75;;;;;;;0.32;100.00;100992.53;4943411;28;20116;-85
2024/01/14 11:06:22;;;;;;;32.20;14.75;;;;;;;0.44;100.00;101015.88;4953851;28;20040;-86
2024/01/14 11:09:06;;;;;;;33.53;14.85;;;;;;;0.52;100.00;101016.06;4960251;28;20026;-85
2024/01/14 11:15:03;;;;;;;32.60;14.55;;;;;;;0.25;100.00;100972.72;4962476;28;20046;-85
2024/01/14 11:18:21;;;;;;;32.83;14.90;;;;;;;0.50;100.00;101012.63;4929591;28;20034;-89
2024/01/14 11:21:50;;;;;;;31.77;13.90;;;;;;;0.35;100.00;100984.94;4959513;28;20110;-79
2024/01/14 11:24:40;;;;;;;31.50;13.68;;;;;;;0.27;100.00;100963.44;4891460;29;20029;-86
2024/01/14 11:27:21;;;;;;;32.72;14.05;;;;;;;0.26;100.00;100964.25;4893458;29;20054;-87
2024/01/14 11:30:26;;;;;;;31.15;13.75;;;;;;;0.38;100.00;100981.63;4896227;29;20040;-86
2024/01/14 11:33:49;;;;;;;30.00;13.43;;;;;;;0.09;100.00;100935.69;4941268;29;20054;-88
2024/01/14 11:36:52;;;;;;;28.90;11.98;;;;;;;0.32;100.00;100978.88;4955786;29;20054;-89
2024/01/14 11:40:03;;;;;;;25.90;11.40;;;;;;;0.31;100.00;100970.38;4965950;23;20051;-90
2024/01/14 11:42:38;;;;;;;28.48;12.60;;;;;;;0.23;100.00;100951.38;4945223;29;20027;-87
2024/01/14 11:45:25;;;;;;;28.52;12.15;;;;;;;0.29;100.00;100964.34;4953874;29;20037;-86
2024/01/14 11:47:57;;;;;;;31.83;13.30;;;;;;;0.17;100.00;100948.69;4949361;29;20031;-85
2024/01/14 11:53:46;;;;;;;28.83;12.73;;;;;;;0.13;100.00;100929.88;4955092;28;20038;-86
2024/01/14 11:56:46;;;;;;;26.33;11.68;;;;;;;0.30;100.00;100958.44;4959998;28;20027;-86